Time;durP1;ratioP1;P1;durP2;ratioP2;P2;SDS_P1;SDS_P2;PMS_P1;PMS_P2;Temp;Humidity;BMP_temperature;BMP_pressure;BME280_temperature;BME280_humidity;BME280_pressure;Samples;Min_cycle;Max_cycle;Signal;HPM_P1;HPM_P2
2024/01/25 00:02:05;;;;;;;14.30;3.47;;;9.20;99.90;;;;;;5069758;28;20636;-72
2024/01/25 00:04:31;;;;;;;16.43;3.13;;;9.20;99.90;;;;;;5069447;28;20187;-72
2024/01/25 00:06:57;;;;;;;22.07;2.43;;;9.20;99.90;;;;;;5069327;28;20248;-73
2024/01/25 00:09:22;;;;;;;17.30;2.77;;;9.30;99.90;;;;;;5069100;28;20686;-73
2024/01/25 00:11:48;;;;;;;14.87;3.13;;;9.20;99.90;;;;;;5050802;28;20278;-73
2024/01/25 00:14:13;;;;;;;13.50;3.10;;;9.20;99.90;;;;;;5069039;28;20198;-72
2024/01/25 00:16:42;;;;;;;16.90;3.70;;;9.20;99.90;;;;;;5050922;28;20706;-73
2024/01/25 00:19:08;;;;;;;14.00;3.10;;;9.20;99.90;;;;;;5068813;28;20215;-73
2024/01/25 00:21:34;;;;;;;21.03;3.00;;;9.20;99.90;;;;;;5068812;28;21289;-72
2024/01/25 00:24:00;;;;;;;23.00;3.67;;;9.20;99.90;;;;;;5068744;28;20691;-72
2024/01/25 00:26:25;;;;;;;22.17;3.10;;;9.10;99.90;;;;;;5068683;28;20429;-72
2024/01/25 00:28:51;;;;;;;23.50;2.63;;;9.20;99.90;;;;;;5068803;28;20301;-72
2024/01/25 00:31:16;;;;;;;12.50;2.90;;;9.10;99.90;;;;;;5068747;28;20198;-73
2024/01/25 00:33:42;;;;;;;19.30;3.23;;;9.10;99.90;;;;;;5068730;28;20218;-73
2024/01/25 00:36:08;;;;;;;15.40;2.20;;;9.10;99.90;;;;;;5068670;28;20610;-72
2024/01/25 00:38:34;;;;;;;11.50;2.17;;;9.10;99.90;;;;;;5068368;28;20735;-71
2024/01/25 00:41:00;;;;;;;15.90;3.13;;;9.10;99.90;;;;;;5068543;28;20773;-71
2024/01/25 00:43:26;;;;;;;17.20;2.43;;;9.10;99.90;;;;;;5068699;28;20921;-72
2024/01/25 00:45:52;;;;;;;14.30;2.80;;;9.10;99.90;;;;;;5050243;28;20670;-71
2024/01/25 00:48:18;;;;;;;9.00;2.17;;;9.10;99.90;;;;;;5068367;28;20472;-72
2024/01/25 00:50:44;;;;;;;23.83;3.33;;;9.10;99.90;;;;;;5068137;28;20873;-72
2024/01/25 00:53:10;;;;;;;17.13;2.33;;;9.10;99.90;;;;;;5068407;28;20422;-72
2024/01/25 00:55:35;;;;;;;10.43;2.40;;;9.00;99.90;;;;;;5068377;28;20186;-72
2024/01/25 00:58:01;;;;;;;11.10;2.50;;;9.00;99.90;;;;;;5068250;28;20695;-72
2024/01/25 01:00:27;;;;;;;20.53;3.00;;;9.00;99.90;;;;;;5068372;28;20452;-72
2024/01/25 01:02:53;;;;;;;11.27;2.30;;;9.00;99.90;;;;;;5068327;28;20924;-73
2024/01/25 01:05:19;;;;;;;11.80;2.43;;;9.00;99.90;;;;;;5068394;28;20431;-72
2024/01/25 01:07:45;;;;;;;10.53;2.23;;;9.00;99.90;;;;;;5068660;28;20313;-72
2024/01/25 01:10:11;;;;;;;17.07;2.57;;;9.00;99.90;;;;;;5068913;28;20512;-72
2024/01/25 01:12:37;;;;;;;9.53;1.90;;;9.00;99.90;;;;;;5069003;28;20413;-72
2024/01/25 01:15:03;;;;;;;19.53;3.40;;;9.00;99.90;;;;;;5069161;28;20194;-72
2024/01/25 01:17:29;;;;;;;19.10;3.23;;;9.00;99.90;;;;;;5069017;28;20242;-73
2024/01/25 01:19:54;;;;;;;10.23;2.40;;;9.00;99.90;;;;;;5069101;28;20922;-73
2024/01/25 01:22:20;;;;;;;15.30;2.73;;;9.00;99.90;;;;;;5050928;28;20723;-72
2024/01/25 01:24:45;;;;;;;14.80;2.23;;;9.00;99.90;;;;;;5069359;28;20210;-72
2024/01/25 01:27:11;;;;;;;20.67;3.47;;;9.10;99.90;;;;;;5069584;28;20565;-73
2024/01/25 01:29:37;;;;;;;9.10;2.30;;;9.00;99.90;;;;;;5069132;28;20679;-72
2024/01/25 01:32:03;;;;;;;8.60;2.20;;;9.00;99.90;;;;;;5051096;28;20426;-72
2024/01/25 01:34:28;;;;;;;11.13;2.73;;;9.00;99.90;;;;;;5068912;28;20569;-72
2024/01/25 01:36:54;;;;;;;10.73;3.20;;;9.00;99.90;;;;;;5068632;28;20449;-73
2024/01/25 01:39:20;;;;;;;13.00;2.07;;;9.00;99.90;;;;;;5068572;28;20229;-72
2024/01/25 01:41:49;;;;;;;12.60;2.67;;;9.00;99.90;;;;;;5068562;28;20187;-72
2024/01/25 01:44:14;;;;;;;9.83;2.50;;;9.00;99.90;;;;;;5068579;28;20741;-72
2024/01/25 01:46:41;;;;;;;8.93;2.43;;;9.00;99.90;;;;;;5050069;28;20470;-71
2024/01/25 01:49:11;;;;;;;9.47;2.80;;;9.00;99.90;;;;;;5067917;28;20204;-72
2024/01/25 01:51:38;;;;;;;13.23;3.20;;;8.90;99.90;;;;;;5067964;28;20512;-72
2024/01/25 01:54:06;;;;;;;9.97;2.37;;;8.90;99.90;;;;;;5068095;28;20909;-73
2024/01/25 01:56:32;;;;;;;7.67;2.43;;;8.90;99.90;;;;;;5068109;28;20432;-74
2024/01/25 01:59:00;;;;;;;10.30;2.23;;;8.90;99.90;;;;;;5067719;28;20519;-73
2024/01/25 02:01:26;;;;;;;10.13;2.30;;;8.80;99.90;;;;;;5068041;28;20940;-73
2024/01/25 02:03:52;;;;;;;12.83;2.20;;;8.80;99.90;;;;;;5071674;28;20438;-73
2024/01/25 02:06:19;;;;;;;13.03;2.90;;;8.80;99.90;;;;;;5071465;28;20850;-73
2024/01/25 02:08:45;;;;;;;11.83;2.67;;;8.80;99.90;;;;;;5071155;28;20444;-72
2024/01/25 02:11:14;;;;;;;14.53;2.30;;;8.90;99.90;;;;;;5071211;28;20952;-72
2024/01/25 02:13:39;;;;;;;10.57;2.80;;;8.80;99.90;;;;;;5071107;28;20417;-73
2024/01/25 02:16:07;;;;;;;14.03;2.13;;;8.80;99.90;;;;;;5053016;28;20414;-73
2024/01/25 02:18:33;;;;;;;10.77;2.00;;;8.80;99.90;;;;;;5052969;28;20208;-73
2024/01/25 02:20:59;;;;;;;15.73;2.60;;;8.80;99.90;;;;;;5071072;28;20459;-72
2024/01/25 02:23:25;;;;;;;14.70;2.90;;;8.80;99.90;;;;;;5070873;28;20449;-72
2024/01/25 02:25:51;;;;;;;13.97;2.40;;;8.80;99.90;;;;;;5071010;28;20411;-72
2024/01/25 02:28:16;;;;;;;11.23;2.20;;;8.90;99.90;;;;;;5052808;28;20203;-72
2024/01/25 02:30:42;;;;;;;15.47;3.13;;;8.80;99.90;;;;;;5053295;28;20202;-72
2024/01/25 02:33:07;;;;;;;11.80;2.90;;;8.90;99.90;;;;;;5070940;28;20186;-72
2024/01/25 02:35:33;;;;;;;12.83;3.00;;;8.90;99.90;;;;;;5071126;28;20199;-72
2024/01/25 02:37:59;;;;;;;13.07;2.67;;;8.90;99.90;;;;;;5070902;28;20222;-72
2024/01/25 02:40:24;;;;;;;20.20;2.83;;;8.90;99.90;;;;;;5071160;28;20845;-73
2024/01/25 02:42:50;;;;;;;14.50;2.80;;;8.90;99.90;;;;;;5070848;28;20179;-72
2024/01/25 02:45:16;;;;;;;15.97;2.93;;;8.90;99.90;;;;;;5070945;28;20227;-72
2024/01/25 02:47:41;;;;;;;21.00;2.90;;;8.80;99.90;;;;;;5070817;28;20241;-71
2024/01/25 02:50:07;;;;;;;13.03;2.30;;;8.90;99.90;;;;;;5070766;28;20211;-72
2024/01/25 02:52:33;;;;;;;7.17;2.47;;;8.90;99.90;;;;;;5070939;28;20654;-72
2024/01/25 02:54:58;;;;;;;14.17;2.93;;;8.80;99.90;;;;;;5070804;28;20463;-72
2024/01/25 02:57:24;;;;;;;17.07;2.60;;;8.90;99.90;;;;;;5070290;28;20187;-72
2024/01/25 02:59:50;;;;;;;14.47;2.80;;;8.80;99.90;;;;;;5070492;28;20318;-72
2024/01/25 03:02:18;;;;;;;14.70;3.13;;;8.80;99.90;;;;;;5052188;28;20426;-72
2024/01/25 03:04:44;;;;;;;10.23;1.83;;;8.80;99.90;;;;;;5070344;28;20216;-72
2024/01/25 03:07:09;;;;;;;15.63;2.67;;;8.70;99.90;;;;;;5070177;28;20430;-73
2024/01/25 03:09:35;;;;;;;12.00;2.53;;;8.60;99.90;;;;;;5070044;28;20265;-73
2024/01/25 03:12:00;;;;;;;15.93;3.10;;;8.60;99.90;;;;;;5052030;28;20185;-73
2024/01/25 03:14:26;;;;;;;18.23;2.90;;;8.60;99.90;;;;;;5070179;28;20703;-71
2024/01/25 03:16:51;;;;;;;15.77;2.87;;;8.50;99.90;;;;;;5070089;28;20194;-71
2024/01/25 03:19:18;;;;;;;12.80;2.17;;;8.60;99.90;;;;;;5069989;28;20298;-72
2024/01/25 03:21:43;;;;;;;10.63;2.67;;;8.60;99.90;;;;;;5069999;28;20176;-71
2024/01/25 03:24:09;;;;;;;13.10;2.90;;;8.50;99.90;;;;;;5070278;28;20424;-71
2024/01/25 03:26:35;;;;;;;12.50;2.33;;;8.60;99.90;;;;;;5070723;28;20187;-72
2024/01/25 03:29:00;;;;;;;11.37;3.00;;;8.60;99.90;;;;;;5069942;28;20294;-72
2024/01/25 03:31:26;;;;;;;12.00;2.10;;;8.50;99.90;;;;;;5051626;28;20183;-72
2024/01/25 03:33:51;;;;;;;13.93;2.20;;;8.50;99.90;;;;;;5069879;28;20187;-72
2024/01/25 03:36:17;;;;;;;8.80;2.30;;;8.50;99.90;;;;;;5051992;28;20232;-72
2024/01/25 03:38:43;;;;;;;13.47;2.67;;;8.50;99.90;;;;;;5069607;28;20229;-71
2024/01/25 03:41:09;;;;;;;15.00;2.70;;;8.50;99.90;;;;;;5069955;28;20759;-71
2024/01/25 03:43:35;;;;;;;12.50;2.40;;;8.50;99.90;;;;;;5069662;28;20421;-72
2024/01/25 03:46:01;;;;;;;15.53;2.40;;;8.40;99.90;;;;;;5069506;28;20424;-71
2024/01/25 03:48:27;;;;;;;17.70;3.50;;;8.40;99.90;;;;;;5069703;28;20437;-72
2024/01/25 03:50:56;;;;;;;10.37;2.27;;;8.40;99.90;;;;;;5069649;28;20774;-72
2024/01/25 03:53:22;;;;;;;15.23;2.70;;;8.40;99.90;;;;;;5069876;28;20181;-72
2024/01/25 03:55:48;;;;;;;16.50;2.60;;;8.30;99.90;;;;;;5051593;28;20925;-73
2024/01/25 03:58:15;;;;;;;18.63;2.40;;;8.40;99.90;;;;;;5069540;28;20472;-72
2024/01/25 04:00:40;;;;;;;17.23;2.43;;;8.40;99.90;;;;;;5069430;28;20959;-72
2024/01/25 04:03:06;;;;;;;17.47;3.10;;;8.40;99.90;;;;;;5070103;28;20422;-72
2024/01/25 04:05:31;;;;;;;18.77;3.43;;;8.40;99.90;;;;;;5070328;28;20709;-71
2024/01/25 04:07:57;;;;;;;12.27;2.00;;;8.40;99.90;;;;;;5069842;28;20211;-72
2024/01/25 04:10:23;;;;;;;7.87;1.87;;;8.40;99.90;;;;;;5070315;28;20194;-72
2024/01/25 04:12:48;;;;;;;14.47;2.57;;;8.40;99.90;;;;;;5069570;28;20190;-72
2024/01/25 04:15:14;;;;;;;16.83;2.70;;;8.40;99.90;;;;;;5069413;28;20992;-72
2024/01/25 04:17:39;;;;;;;12.30;2.80;;;8.40;99.90;;;;;;5051505;28;20686;-72
2024/01/25 04:20:06;;;;;;;19.00;2.77;;;8.30;99.90;;;;;;5069638;28;20693;-72
2024/01/25 04:22:31;;;;;;;11.93;2.07;;;8.30;99.90;;;;;;5069731;28;20175;-71
2024/01/25 04:24:57;;;;;;;13.23;2.83;;;8.30;99.90;;;;;;5069152;28;20988;-72
2024/01/25 04:27:22;;;;;;;12.50;2.40;;;8.30;99.90;;;;;;5069603;28;20248;-73
2024/01/25 04:29:48;;;;;;;13.27;2.27;;;8.30;99.90;;;;;;5069451;28;20212;-71
2024/01/25 04:32:14;;;;;;;18.13;3.27;;;8.30;99.90;;;;;;5069696;28;20214;-71
2024/01/25 04:34:39;;;;;;;17.77;2.80;;;8.30;99.90;;;;;;5034818;28;20633;-72
2024/01/25 04:37:05;;;;;;;15.90;2.73;;;8.30;99.90;;;;;;5069388;28;20657;-72
2024/01/25 04:39:30;;;;;;;13.33;2.23;;;8.30;99.90;;;;;;5069366;28;20218;-72
2024/01/25 04:41:56;;;;;;;11.30;1.93;;;8.40;99.90;;;;;;5069555;28;20550;-72
2024/01/25 04:44:22;;;;;;;13.33;2.80;;;8.30;99.90;;;;;;5069384;28;20262;-72
2024/01/25 04:46:47;;;;;;;8.90;1.60;;;8.30;99.90;;;;;;5069469;28;20179;-72
2024/01/25 04:49:13;;;;;;;8.93;2.20;;;8.30;99.90;;;;;;5069212;28;20632;-72
2024/01/25 04:51:38;;;;;;;20.23;3.17;;;8.40;99.90;;;;;;5067840;28;20190;-72
2024/01/25 04:54:06;;;;;;;8.07;1.40;;;8.30;99.90;;;;;;5067866;28;20235;-71
2024/01/25 04:56:32;;;;;;;16.67;2.50;;;8.30;99.90;;;;;;5067724;28;20181;-71
2024/01/25 04:58:57;;;;;;;10.07;2.20;;;8.20;99.90;;;;;;5067378;28;20555;-72
2024/01/25 05:01:23;;;;;;;11.70;2.10;;;8.30;99.90;;;;;;5067546;28;20184;-71
2024/01/25 05:03:49;;;;;;;8.10;1.50;;;8.30;99.90;;;;;;5049547;28;20221;-72
2024/01/25 05:06:14;;;;;;;15.17;2.33;;;8.30;99.90;;;;;;5067216;28;20418;-71
2024/01/25 05:08:42;;;;;;;13.03;2.27;;;8.30;99.90;;;;;;5067323;28;20219;-71
2024/01/25 05:11:08;;;;;;;6.93;1.53;;;8.30;99.90;;;;;;5067208;28;20317;-72
2024/01/25 05:13:35;;;;;;;9.50;2.20;;;8.20;99.90;;;;;;5067136;28;20456;-72
2024/01/25 05:16:00;;;;;;;11.07;2.70;;;8.20;99.90;;;;;;5066967;28;20428;-72
2024/01/25 05:18:26;;;;;;;11.83;2.70;;;8.20;99.90;;;;;;5066684;28;20465;-72
2024/01/25 05:20:52;;;;;;;9.53;2.20;;;8.20;99.90;;;;;;5067114;28;20212;-73
2024/01/25 05:23:17;;;;;;;13.43;1.63;;;8.20;99.90;;;;;;5066770;28;20189;-71
2024/01/25 05:25:43;;;;;;;10.37;1.90;;;8.20;99.90;;;;;;5066928;28;20221;-71
2024/01/25 05:28:08;;;;;;;12.00;1.77;;;8.20;99.90;;;;;;5066712;28;20225;-72
2024/01/25 05:30:34;;;;;;;8.93;1.73;;;8.20;99.90;;;;;;5066886;28;20275;-71
2024/01/25 05:33:00;;;;;;;15.20;2.53;;;8.20;99.90;;;;;;5067135;28;20692;-72
2024/01/25 05:35:26;;;;;;;9.17;2.00;;;8.20;99.90;;;;;;5066845;28;20275;-72
2024/01/25 05:37:52;;;;;;;6.03;1.97;;;8.20;99.90;;;;;;5068851;28;20882;-71
2024/01/25 05:40:18;;;;;;;14.30;2.10;;;8.20;99.90;;;;;;5070469;28;20179;-71
2024/01/25 05:42:44;;;;;;;8.90;2.40;;;8.20;99.90;;;;;;5070323;28;20261;-72
2024/01/25 05:45:10;;;;;;;10.53;2.17;;;8.20;99.90;;;;;;5070497;28;20530;-71
2024/01/25 05:47:36;;;;;;;9.30;2.13;;;8.20;99.90;;;;;;5070162;28;20191;-72
2024/01/25 05:50:02;;;;;;;13.70;2.00;;;8.20;99.90;;;;;;5070085;28;20444;-71
2024/01/25 05:52:29;;;;;;;5.97;2.33;;;8.20;99.90;;;;;;5069989;28;20424;-71
2024/01/25 05:54:54;;;;;;;11.77;2.20;;;8.20;99.90;;;;;;5051983;28;20908;-72
2024/01/25 05:57:20;;;;;;;6.97;1.30;;;8.20;99.90;;;;;;5069761;28;20920;-72
2024/01/25 05:59:46;;;;;;;7.50;1.77;;;8.20;99.90;;;;;;5069695;28;20317;-72
2024/01/25 06:02:12;;;;;;;4.97;1.40;;;8.20;99.90;;;;;;5069920;28;20417;-71
2024/01/25 06:04:37;;;;;;;10.13;1.40;;;8.10;99.90;;;;;;5069946;28;20183;-71
2024/01/25 06:07:03;;;;;;;3.40;1.27;;;8.10;99.90;;;;;;5051584;28;20218;-71
2024/01/25 06:09:29;;;;;;;9.80;2.03;;;8.00;99.90;;;;;;5069403;28;20211;-71
2024/01/25 06:11:54;;;;;;;10.37;2.30;;;8.00;99.90;;;;;;5069481;28;20514;-72
2024/01/25 06:14:20;;;;;;;7.73;1.77;;;7.90;99.90;;;;;;5069231;28;20506;-71
2024/01/25 06:16:46;;;;;;;5.83;1.40;;;8.00;99.90;;;;;;5051439;28;20189;-71
2024/01/25 06:19:11;;;;;;;7.23;1.50;;;7.90;99.90;;;;;;5069245;28;20219;-71
2024/01/25 06:21:37;;;;;;;4.40;1.53;;;7.90;99.90;;;;;;5069381;28;20604;-72
2024/01/25 06:24:06;;;;;;;6.90;1.20;;;7.80;99.90;;;;;;5069610;28;20221;-72
2024/01/25 06:26:31;;;;;;;8.30;1.63;;;7.80;99.90;;;;;;5069854;28;20172;-72
2024/01/25 06:28:57;;;;;;;8.60;1.50;;;7.70;99.90;;;;;;5069557;28;20484;-72
2024/01/25 06:31:25;;;;;;;7.43;2.07;;;7.60;99.90;;;;;;5069230;28;20183;-72
2024/01/25 06:33:52;;;;;;;5.63;1.83;;;7.60;99.90;;;;;;5068962;28;20192;-72
2024/01/25 06:36:22;;;;;;;7.60;1.43;;;7.60;99.90;;;;;;5069299;28;20765;-72
2024/01/25 06:38:48;;;;;;;9.00;2.00;;;7.60;99.90;;;;;;5069246;28;20806;-72
2024/01/25 06:41:15;;;;;;;7.63;1.73;;;7.50;99.90;;;;;;5069084;28;20413;-72
2024/01/25 06:43:40;;;;;;;15.63;2.27;;;7.50;99.90;;;;;;5050868;28;20175;-72
2024/01/25 06:46:06;;;;;;;15.63;2.00;;;7.40;99.90;;;;;;5068885;28;20426;-72
2024/01/25 06:48:32;;;;;;;13.90;2.40;;;7.40;99.90;;;;;;5068358;28;20210;-72
2024/01/25 06:50:58;;;;;;;8.60;2.03;;;7.40;99.90;;;;;;5050846;28;20430;-72
2024/01/25 06:53:23;;;;;;;10.87;2.50;;;7.40;99.90;;;;;;5068666;28;20187;-72
2024/01/25 06:55:49;;;;;;;15.83;3.30;;;7.40;99.90;;;;;;5069068;28;20189;-72
2024/01/25 06:58:18;;;;;;;10.17;1.50;;;7.40;99.90;;;;;;5068415;28;20770;-72
2024/01/25 07:00:45;;;;;;;14.00;2.90;;;7.40;99.90;;;;;;5068539;28;20186;-72
2024/01/25 07:03:10;;;;;;;9.90;1.93;;;7.40;99.90;;;;;;5068790;28;20418;-72
2024/01/25 07:05:36;;;;;;;9.50;2.00;;;7.50;99.90;;;;;;5068611;28;20435;-72
2024/01/25 07:08:02;;;;;;;7.80;1.73;;;7.40;99.90;;;;;;5068895;28;20714;-72
2024/01/25 07:10:28;;;;;;;5.60;1.87;;;7.30;99.90;;;;;;5068488;28;20183;-72
2024/01/25 07:12:54;;;;;;;5.27;1.10;;;7.30;99.90;;;;;;5068376;28;20420;-72
2024/01/25 07:15:20;;;;;;;4.53;1.20;;;7.30;99.90;;;;;;5068484;28;20180;-72
2024/01/25 07:17:46;;;;;;;4.17;1.30;;;7.30;99.90;;;;;;5068745;28;20429;-72
2024/01/25 07:20:12;;;;;;;9.03;1.70;;;7.30;99.90;;;;;;5068372;28;20563;-72
2024/01/25 07:22:38;;;;;;;9.47;1.37;;;7.30;99.90;;;;;;5068405;28;20186;-73
2024/01/25 07:25:04;;;;;;;4.50;1.40;;;7.30;99.90;;;;;;5068280;28;20856;-72
2024/01/25 07:27:30;;;;;;;4.90;1.63;;;7.30;99.90;;;;;;5050308;28;20526;-72
2024/01/25 07:29:55;;;;;;;10.60;1.70;;;7.30;99.90;;;;;;5069622;28;20425;-73
2024/01/25 07:32:21;;;;;;;6.93;1.30;;;7.30;99.90;;;;;;5053356;28;20195;-72
2024/01/25 07:34:46;;;;;;;5.20;1.40;;;7.30;99.90;;;;;;5070852;28;20218;-72
2024/01/25 07:37:13;;;;;;;16.47;3.20;;;7.30;99.90;;;;;;5069259;28;20202;-72
2024/01/25 07:39:39;;;;;;;10.77;1.70;;;7.20;99.90;;;;;;5068269;28;20237;-72
2024/01/25 07:42:04;;;;;;;7.70;1.50;;;7.30;99.90;;;;;;5033637;28;20425;-72
2024/01/25 07:44:30;;;;;;;8.83;2.00;;;7.40;99.90;;;;;;5068348;28;20175;-73
2024/01/25 07:46:55;;;;;;;8.00;1.70;;;7.70;99.90;;;;;;5068596;28;20598;-72
2024/01/25 07:49:21;;;;;;;6.87;1.83;;;7.90;99.90;;;;;;5050550;28;20207;-72
2024/01/25 07:51:47;;;;;;;8.73;2.07;;;8.10;99.90;;;;;;5068474;28;20218;-72
2024/01/25 07:54:13;;;;;;;7.80;1.93;;;8.20;99.90;;;;;;5068586;28;20187;-73
2024/01/25 07:56:39;;;;;;;6.37;1.60;;;8.30;99.90;;;;;;5068365;28;20203;-73
2024/01/25 07:59:04;;;;;;;9.73;2.10;;;8.30;99.90;;;;;;5067381;28;20544;-72
2024/01/25 08:01:30;;;;;;;5.90;1.40;;;8.40;99.90;;;;;;5068064;28;20184;-72
2024/01/25 08:03:56;;;;;;;8.10;1.53;;;8.40;99.90;;;;;;5068384;28;20184;-72
2024/01/25 08:06:22;;;;;;;8.30;2.10;;;8.50;99.90;;;;;;5068168;28;20548;-71
2024/01/25 08:08:48;;;;;;;9.13;2.50;;;8.40;99.90;;;;;;5068038;28;20225;-72
2024/01/25 08:11:13;;;;;;;3.00;1.50;;;8.60;99.90;;;;;;5068564;28;20506;-71
2024/01/25 08:13:42;;;;;;;15.10;1.83;;;8.70;99.90;;;;;;5067903;28;20183;-71
2024/01/25 08:16:11;;;;;;;7.67;1.53;;;8.70;99.90;;;;;;5067889;28;20183;-71
2024/01/25 08:18:36;;;;;;;7.53;1.80;;;8.90;99.90;;;;;;5067821;28;20963;-72
2024/01/25 08:21:02;;;;;;;5.30;1.50;;;9.00;99.90;;;;;;5067798;28;20432;-72
2024/01/25 08:23:28;;;;;;;7.33;1.57;;;9.40;99.90;;;;;;5067838;28;20191;-72
2024/01/25 08:25:53;;;;;;;7.40;1.47;;;10.00;99.90;;;;;;5067845;28;20195;-72
2024/01/25 08:28:19;;;;;;;5.23;1.83;;;11.10;99.90;;;;;;5067861;28;20205;-72
2024/01/25 08:30:46;;;;;;;6.27;2.07;;;11.60;99.90;;;;;;5068159;28;20298;-71
2024/01/25 08:33:11;;;;;;;8.37;1.77;;;12.40;99.90;;;;;;5068078;28;20776;-73
2024/01/25 08:35:37;;;;;;;7.53;1.97;;;13.70;99.90;;;;;;5067977;28;20434;-72
2024/01/25 08:38:03;;;;;;;6.50;2.00;;;14.70;99.90;;;;;;5068025;28;20472;-73
2024/01/25 08:40:29;;;;;;;13.03;2.57;;;15.50;99.90;;;;;;5067708;28;20508;-71
2024/01/25 08:42:55;;;;;;;8.77;2.10;;;16.30;99.90;;;;;;5067291;28;20179;-72
2024/01/25 08:45:20;;;;;;;6.77;2.13;;;17.00;99.90;;;;;;5067514;28;20471;-72
2024/01/25 08:47:46;;;;;;;6.73;1.90;;;17.70;99.90;;;;;;5049663;28;20198;-72
2024/01/25 08:50:12;;;;;;;7.83;2.30;;;18.10;99.30;;;;;;5067205;28;20558;-72
2024/01/25 08:52:40;;;;;;;14.03;3.20;;;18.80;99.30;;;;;;5067174;28;20212;-72
2024/01/25 08:55:06;;;;;;;9.83;2.30;;;19.20;96.50;;;;;;5067330;28;20492;-72
2024/01/25 08:57:32;;;;;;;9.50;2.40;;;19.10;94.50;;;;;;5070311;28;20425;-72
2024/01/25 08:59:58;;;;;;;13.10;2.87;;;19.80;95.00;;;;;;5066939;28;20458;-72
2024/01/25 09:02:27;;;;;;;10.77;2.90;;;20.10;94.30;;;;;;5067180;28;20261;-72
2024/01/25 09:04:53;;;;;;;7.20;2.90;;;20.30;92.10;;;;;;5067637;28;20428;-72
2024/01/25 09:07:22;;;;;;;8.33;2.50;;;21.10;92.30;;;;;;5072936;28;20945;-72
2024/01/25 09:09:48;;;;;;;10.43;2.70;;;21.70;90.80;;;;;;5049449;28;20984;-73
2024/01/25 09:12:15;;;;;;;7.00;2.23;;;22.30;90.00;;;;;;5070779;28;20414;-72
2024/01/25 09:14:42;;;;;;;12.40;3.03;;;22.50;86.60;;;;;;5071234;28;20546;-72
2024/01/25 09:17:08;;;;;;;14.73;3.77;;;22.80;84.30;;;;;;5071251;28;20440;-73
2024/01/25 09:19:34;;;;;;;17.43;3.90;;;23.30;83.90;;;;;;5071141;28;20805;-71
2024/01/25 09:22:04;;;;;;;13.10;3.10;;;23.50;79.80;;;;;;5071148;28;20428;-72
2024/01/25 09:24:30;;;;;;;13.13;3.07;;;23.70;80.20;;;;;;5053981;28;20179;-73
2024/01/25 09:26:55;;;;;;;8.27;3.23;;;23.00;77.40;;;;;;5071226;28;20420;-72
2024/01/25 09:29:21;;;;;;;9.60;2.73;;;23.00;78.40;;;;;;5071350;28;20813;-72
2024/01/25 09:31:47;;;;;;;7.90;2.90;;;22.60;78.20;;;;;;5052696;28;20186;-72
2024/01/25 09:34:12;;;;;;;7.63;2.90;;;22.00;78.30;;;;;;5052544;28;20182;-72
2024/01/25 09:36:38;;;;;;;13.97;3.03;;;20.90;79.40;;;;;;5070410;28;20194;-72
2024/01/25 09:39:04;;;;;;;10.87;2.80;;;19.20;80.60;;;;;;5070649;28;20214;-72
2024/01/25 09:41:29;;;;;;;11.70;3.10;;;18.10;84.90;;;;;;5052279;28;20793;-71
2024/01/25 09:43:55;;;;;;;10.47;3.37;;;17.60;89.40;;;;;;5070975;28;20500;-71
2024/01/25 09:46:21;;;;;;;8.97;2.63;;;17.40;89.20;;;;;;5070814;28;20260;-71
2024/01/25 09:48:47;;;;;;;14.43;3.30;;;18.30;90.30;;;;;;5070424;28;20220;-71
2024/01/25 09:51:13;;;;;;;17.53;2.93;;;19.70;87.70;;;;;;5070952;28;20834;-72
2024/01/25 09:53:41;;;;;;;21.17;3.40;;;20.20;84.50;;;;;;5052007;28;20913;-71
2024/01/25 09:56:08;;;;;;;13.23;3.40;;;20.80;81.00;;;;;;5070593;28;20828;-74
2024/01/25 09:58:47;;;;;;;17.10;3.17;;;20.90;80.80;;;;;;5070333;28;20459;-73
2024/01/25 10:01:14;;;;;;;13.87;3.50;;;21.20;80.10;;;;;;5070412;28;20424;-71
2024/01/25 10:03:44;;;;;;;17.17;3.43;;;20.30;80.60;;;;;;5070315;28;20442;-72
2024/01/25 10:06:14;;;;;;;8.63;2.73;;;19.20;83.20;;;;;;5070286;28;20471;-73
2024/01/25 10:08:40;;;;;;;15.37;3.37;;;19.60;84.00;;;;;;5070518;28;20610;-72
2024/01/25 10:11:06;;;;;;;12.80;3.60;;;18.70;85.30;;;;;;5069992;28;20858;-72
2024/01/25 10:13:31;;;;;;;12.93;3.17;;;18.00;87.90;;;;;;5069894;28;20219;-73
2024/01/25 10:15:58;;;;;;;11.17;3.23;;;17.40;89.50;;;;;;5070566;28;20926;-73
2024/01/25 10:18:25;;;;;;;14.30;3.30;;;16.60;90.90;;;;;;5070460;28;20243;-72
2024/01/25 10:20:55;;;;;;;10.20;3.17;;;16.00;93.10;;;;;;5070416;28;20425;-73
2024/01/25 10:23:22;;;;;;;16.60;3.77;;;16.30;95.40;;;;;;5069447;28;20427;-72
2024/01/25 10:25:47;;;;;;;17.73;2.93;;;16.60;94.90;;;;;;5070297;28;20423;-72
2024/01/25 10:28:13;;;;;;;14.87;2.77;;;16.40;94.30;;;;;;5070049;28;20437;-72
2024/01/25 10:30:39;;;;;;;17.73;3.00;;;16.00;95.20;;;;;;5070347;28;20187;-73
2024/01/25 10:33:05;;;;;;;14.13;3.33;;;16.20;97.70;;;;;;5051829;28;20190;-71
2024/01/25 10:35:32;;;;;;;19.57;3.37;;;16.00;96.60;;;;;;5069952;28;20188;-73
2024/01/25 10:37:58;;;;;;;16.83;3.20;;;15.40;99.30;;;;;;5069535;28;20471;-71
2024/01/25 10:40:24;;;;;;;10.50;2.70;;;15.30;99.90;;;;;;5069723;28;20464;-72
2024/01/25 10:42:50;;;;;;;12.77;2.83;;;15.70;97.80;;;;;;5070179;28;20191;-72
2024/01/25 10:45:15;;;;;;;17.73;3.80;;;16.10;98.50;;;;;;5070762;28;20410;-71
2024/01/25 10:47:41;;;;;;;14.83;2.50;;;15.90;98.10;;;;;;5070577;28;20486;-71
2024/01/25 10:50:13;;;;;;;15.80;2.60;;;15.70;98.10;;;;;;5070344;28;20636;-72
2024/01/25 10:52:41;;;;;;;9.53;2.07;;;14.70;99.90;;;;;;5051792;28;20206;-71
2024/01/25 10:55:10;;;;;;;16.27;3.20;;;15.80;99.90;;;;;;5069935;28;20467;-72
2024/01/25 10:57:37;;;;;;;12.83;3.03;;;16.50;96.00;;;;;;5051237;28;20936;-73
2024/01/25 11:00:07;;;;;;;10.40;2.33;;;17.30;96.60;;;;;;5069736;28;20466;-72
2024/01/25 11:02:35;;;;;;;23.83;2.80;;;18.70;95.00;;;;;;5069659;28;20418;-72
2024/01/25 11:05:02;;;;;;;5.13;2.00;;;19.60;93.30;;;;;;5035749;28;20426;-73
2024/01/25 11:07:28;;;;;;;11.80;2.27;;;19.70;90.30;;;;;;5070023;28;20917;-72
2024/01/25 11:09:54;;;;;;;7.70;2.33;;;20.10;91.30;;;;;;5069497;28;20419;-72
2024/01/25 11:12:20;;;;;;;12.27;3.30;;;20.40;90.10;;;;;;5069606;28;20188;-72
2024/01/25 11:14:45;;;;;;;7.97;2.17;;;20.40;88.00;;;;;;5069646;28;20468;-73
2024/01/25 11:17:22;;;;;;;7.30;2.10;;;19.20;87.40;;;;;;5069368;28;20673;-72
2024/01/25 11:19:51;;;;;;;8.37;2.13;;;18.50;90.10;;;;;;5069113;28;20229;-72
2024/01/25 11:22:16;;;;;;;9.20;2.50;;;17.30;91.00;;;;;;5069437;28;20412;-72
2024/01/25 11:24:42;;;;;;;9.10;2.07;;;16.50;92.70;;;;;;5069322;28;20854;-72
2024/01/25 11:27:10;;;;;;;8.93;1.90;;;16.00;94.20;;;;;;5068826;28;20412;-72
2024/01/25 11:29:38;;;;;;;9.97;2.20;;;15.40;94.90;;;;;;5068465;28;20465;-71
2024/01/25 11:32:05;;;;;;;11.10;2.13;;;15.20;96.30;;;;;;5068405;28;20480;-71
2024/01/25 11:34:31;;;;;;;11.07;2.30;;;15.60;98.50;;;;;;5068511;28;20746;-73
2024/01/25 11:36:57;;;;;;;8.03;2.27;;;15.60;98.10;;;;;;5068237;28;20963;-72
2024/01/25 11:39:23;;;;;;;8.47;2.90;;;15.10;98.60;;;;;;5067796;28;20500;-72
2024/01/25 11:41:51;;;;;;;10.30;2.53;;;15.10;99.90;;;;;;5067699;28;20529;-72
2024/01/25 11:44:17;;;;;;;15.17;2.37;;;15.60;99.90;;;;;;5068146;28;20172;-72
2024/01/25 11:46:43;;;;;;;9.13;2.20;;;15.50;99.90;;;;;;5067885;28;20439;-71
2024/01/25 11:49:09;;;;;;;12.63;3.00;;;16.40;99.90;;;;;;5067657;28;20230;-71
2024/01/25 11:51:34;;;;;;;7.20;2.00;;;16.00;97.90;;;;;;5049617;28;20417;-72
2024/01/25 11:54:00;;;;;;;13.00;3.33;;;16.40;97.90;;;;;;5067471;28;20198;-72
2024/01/25 11:56:33;;;;;;;10.07;2.40;;;16.50;98.10;;;;;;5067920;28;20994;-72
2024/01/25 11:58:59;;;;;;;5.40;1.83;;;16.30;96.00;;;;;;5067471;28;20220;-71
2024/01/25 12:01:25;;;;;;;8.20;2.53;;;15.80;95.70;;;;;;5067517;28;20440;-72
2024/01/25 12:03:51;;;;;;;7.80;1.97;;;15.10;96.20;;;;;;5067507;28;20417;-71
2024/01/25 12:06:18;;;;;;;8.13;2.17;;;15.00;99.00;;;;;;5049429;28;20467;-72
2024/01/25 12:08:44;;;;;;;5.50;2.27;;;15.10;98.30;;;;;;5067350;28;20461;-72
2024/01/25 12:11:11;;;;;;;7.67;1.90;;;15.30;97.80;;;;;;5067459;28;20440;-72
2024/01/25 12:13:43;;;;;;;5.67;2.20;;;15.50;99.80;;;;;;5067505;28;20421;-72
2024/01/25 12:16:10;;;;;;;9.87;2.07;;;15.50;97.10;;;;;;5067941;28;21026;-72
2024/01/25 12:18:37;;;;;;;9.87;2.27;;;15.70;99.00;;;;;;5067148;28;20481;-72
2024/01/25 12:21:04;;;;;;;5.43;1.73;;;15.30;96.70;;;;;;5067469;28;20425;-72
2024/01/25 12:23:37;;;;;;;17.13;2.30;;;14.40;99.90;;;;;;5067756;28;20484;-73
2024/01/25 12:26:07;;;;;;;7.90;2.33;;;14.20;99.90;;;;;;5067365;28;20468;-71
2024/01/25 12:28:33;;;;;;;8.53;2.50;;;14.10;99.90;;;;;;5067070;28;20445;-71
2024/01/25 12:31:07;;;;;;;12.30;2.47;;;14.10;99.90;;;;;;5068042;28;20991;-72
2024/01/25 12:33:33;;;;;;;9.07;2.33;;;13.90;99.90;;;;;;5049433;28;20437;-72
2024/01/25 12:35:59;;;;;;;13.90;3.30;;;13.90;99.90;;;;;;5067802;28;20421;-71
2024/01/25 12:38:25;;;;;;;19.23;2.90;;;14.10;99.90;;;;;;5067587;28;20517;-72
2024/01/25 12:40:52;;;;;;;14.43;2.33;;;14.40;99.90;;;;;;5067724;28;20450;-72
2024/01/25 12:43:18;;;;;;;10.70;2.80;;;14.50;99.90;;;;;;5067856;28;20421;-72